createdAt,value
2018-08-14T00:01:00.933Z,15.82
2018-08-14T00:03:31.103Z,15.83
2018-08-14T00:06:01.395Z,15.84
2018-08-14T00:08:31.532Z,15.89
2018-08-14T00:11:01.828Z,15.87
2018-08-14T00:13:31.900Z,15.76
2018-08-14T00:16:02.587Z,15.73
2018-08-14T00:18:32.900Z,15.77
2018-08-14T00:21:03.128Z,15.78
2018-08-14T00:23:33.407Z,15.78
2018-08-14T00:26:03.747Z,15.81
2018-08-14T00:28:33.921Z,15.86
2018-08-14T00:31:04.249Z,15.90
2018-08-14T00:33:34.401Z,15.96
2018-08-14T00:36:04.847Z,16.00
2018-08-14T00:38:35.070Z,16.03
2018-08-14T00:41:05.362Z,16.05
2018-08-14T00:43:35.513Z,16.12
2018-08-14T00:46:05.816Z,16.13
2018-08-14T00:48:35.966Z,16.19
2018-08-14T00:51:06.200Z,16.21
2018-08-14T00:53:36.368Z,16.24
2018-08-14T00:56:06.878Z,16.31
2018-08-14T00:58:37.009Z,16.30
2018-08-14T01:01:07.422Z,16.25
2018-08-14T01:03:37.716Z,16.28
2018-08-14T01:06:07.960Z,16.27
2018-08-14T01:08:39.101Z,16.30
2018-08-14T01:11:09.324Z,16.41
2018-08-14T01:13:39.593Z,16.52
2018-08-14T01:16:09.853Z,16.58
2018-08-14T01:18:40.024Z,16.58
2018-08-14T01:21:10.229Z,16.59
2018-08-14T01:23:40.452Z,16.67
2018-08-14T01:26:10.668Z,16.69
2018-08-14T01:28:40.851Z,16.66
2018-08-14T01:31:11.095Z,16.78
2018-08-14T01:33:41.273Z,16.74
2018-08-14T01:36:11.405Z,16.74
2018-08-14T01:38:41.483Z,16.84
2018-08-14T01:41:11.707Z,16.84
2018-08-14T01:43:41.849Z,16.80
2018-08-14T01:46:12.081Z,16.81
2018-08-14T01:48:42.329Z,16.93
2018-08-14T01:51:12.632Z,16.88
2018-08-14T01:53:42.804Z,16.90
2018-08-14T01:56:13.043Z,16.97
2018-08-14T01:58:43.196Z,17.08
2018-08-14T02:01:13.424Z,17.05
2018-08-14T02:03:43.524Z,17.07
2018-08-14T02:06:13.728Z,17.12
2018-08-14T02:08:44.015Z,17.19
2018-08-14T02:11:14.257Z,17.14
2018-08-14T02:13:44.395Z,17.14
2018-08-14T02:16:14.603Z,17.11
2018-08-14T02:18:44.809Z,17.19
2018-08-14T02:21:15.058Z,17.16
2018-08-14T02:23:45.268Z,17.15
2018-08-14T02:26:15.534Z,17.21
2018-08-14T02:28:45.694Z,17.16
2018-08-14T02:31:15.948Z,17.25
2018-08-14T02:33:46.129Z,17.15
2018-08-14T02:36:16.434Z,17.16
2018-08-14T02:38:46.636Z,17.19
2018-08-14T02:41:16.894Z,17.17
2018-08-14T02:43:47.013Z,17.14
2018-08-14T02:46:17.188Z,17.16
2018-08-14T02:48:47.329Z,17.12
2018-08-14T02:51:17.514Z,17.25
2018-08-14T02:53:47.664Z,17.19
2018-08-14T02:56:17.892Z,17.19
2018-08-14T02:58:48.009Z,17.21
2018-08-14T03:01:18.294Z,17.15
2018-08-14T03:03:48.482Z,17.20
2018-08-14T03:06:18.658Z,17.25
2018-08-14T03:08:48.831Z,17.22
2018-08-14T03:11:19.034Z,17.22
2018-08-14T03:13:49.178Z,17.25
2018-08-14T03:16:19.371Z,17.28
2018-08-14T03:18:49.497Z,17.21
2018-08-14T03:21:19.686Z,17.28
2018-08-14T03:23:49.811Z,17.29
2018-08-14T03:26:19.951Z,17.33
2018-08-14T03:28:50.065Z,17.31
2018-08-14T03:31:20.219Z,17.33
2018-08-14T03:33:50.293Z,17.27
2018-08-14T03:36:20.443Z,17.29
2018-08-14T03:38:50.529Z,17.26
2018-08-14T03:41:20.689Z,17.29
2018-08-14T03:43:51.190Z,17.31
2018-08-14T03:46:21.387Z,17.39
2018-08-14T03:48:52.427Z,17.37
2018-08-14T03:51:22.589Z,17.37
2018-08-14T03:53:52.838Z,17.34
2018-08-14T03:56:22.954Z,17.38
2018-08-14T03:58:53.154Z,17.35
2018-08-14T04:01:23.275Z,17.28
2018-08-14T04:03:53.538Z,17.29
2018-08-14T04:06:23.712Z,17.32
2018-08-14T04:08:54.001Z,17.32
2018-08-14T04:11:24.143Z,17.24
2018-08-14T04:13:54.335Z,17.34
2018-08-14T04:16:24.518Z,17.28
2018-08-14T04:18:54.656Z,17.32
2018-08-14T04:21:24.796Z,17.28
2018-08-14T04:23:55.003Z,17.27
2018-08-14T04:26:25.210Z,17.31
2018-08-14T04:28:55.708Z,17.29
2018-08-14T04:31:25.880Z,17.33
2018-08-14T04:33:56.102Z,17.32
2018-08-14T04:36:26.272Z,17.31
2018-08-14T04:38:56.574Z,17.32
2018-08-14T04:41:26.711Z,17.30
2018-08-14T04:43:57.019Z,17.27
2018-08-14T04:46:27.210Z,17.25
2018-08-14T04:48:57.438Z,17.25
2018-08-14T04:51:27.557Z,17.38
2018-08-14T04:53:57.790Z,17.41
2018-08-14T04:56:27.923Z,17.38
2018-08-14T04:58:58.245Z,17.44
2018-08-14T05:01:28.392Z,17.47
2018-08-14T05:03:58.543Z,17.45
2018-08-14T05:06:28.665Z,17.55
2018-08-14T05:08:58.875Z,17.47
2018-08-14T05:11:28.975Z,17.56
2018-08-14T05:13:59.253Z,17.57
2018-08-14T05:16:29.348Z,17.48
2018-08-14T05:18:59.624Z,17.47
2018-08-14T05:21:29.741Z,17.63
2018-08-14T05:23:59.906Z,17.56
2018-08-14T05:26:30.055Z,17.53
2018-08-14T05:29:00.257Z,17.64
2018-08-14T05:31:30.439Z,17.78
2018-08-14T05:34:00.597Z,17.72
2018-08-14T05:36:30.755Z,17.77
2018-08-14T05:39:00.928Z,17.77
2018-08-14T05:41:31.124Z,17.87
2018-08-14T05:44:01.372Z,17.92
2018-08-14T05:46:31.585Z,17.95
2018-08-14T05:49:01.776Z,17.85
2018-08-14T05:51:31.859Z,17.95
2018-08-14T05:54:02.003Z,17.90
2018-08-14T05:56:32.192Z,17.80
2018-08-14T05:59:02.518Z,18.03
2018-08-14T06:01:32.653Z,18.03
2018-08-14T06:04:02.779Z,18.06
2018-08-14T06:06:32.951Z,18.10
2018-08-14T06:09:03.099Z,18.11
2018-08-14T06:11:33.286Z,18.14
2018-08-14T06:14:03.517Z,18.14
2018-08-14T06:16:33.658Z,18.04
2018-08-14T06:19:03.805Z,17.96
2018-08-14T06:21:33.975Z,18.05
2018-08-14T06:24:04.283Z,18.25
2018-08-14T06:26:34.535Z,18.39
2018-08-14T06:29:04.768Z,18.43
2018-08-14T06:31:35.038Z,18.47
2018-08-14T06:34:05.295Z,18.47
2018-08-14T06:36:35.423Z,18.59
2018-08-14T06:39:10.051Z,18.56
2018-08-14T06:41:40.175Z,18.65
2018-08-14T06:44:10.432Z,18.72
2018-08-14T06:46:40.583Z,18.74
2018-08-14T06:49:10.911Z,18.71
2018-08-14T06:51:41.103Z,18.83
2018-08-14T06:54:11.377Z,18.48
2018-08-14T06:56:41.582Z,18.43
2018-08-14T06:59:11.747Z,18.35
2018-08-14T07:01:41.940Z,18.24
2018-08-14T07:04:12.169Z,17.99
2018-08-14T07:06:42.378Z,17.80
2018-08-14T07:09:12.614Z,17.83
2018-08-14T07:11:42.807Z,17.86
2018-08-14T07:14:13.061Z,17.97
2018-08-14T07:16:43.320Z,17.97
2018-08-14T07:19:13.665Z,18.04
2018-08-14T07:21:43.885Z,18.09
2018-08-14T07:24:14.057Z,18.21
2018-08-14T07:26:44.539Z,18.14
2018-08-14T07:29:14.866Z,18.38
2018-08-14T07:31:45.079Z,18.68
2018-08-14T07:34:15.222Z,18.86
2018-08-14T07:36:45.361Z,19.21
2018-08-14T07:39:15.637Z,19.49
2018-08-14T07:41:45.873Z,19.61
2018-08-14T07:44:16.139Z,19.94
2018-08-14T07:46:46.298Z,19.98
2018-08-14T07:49:16.785Z,19.94
2018-08-14T07:51:46.880Z,20.08
2018-08-14T07:54:17.092Z,20.43
2018-08-14T07:56:47.243Z,20.86
2018-08-14T07:59:17.413Z,20.90
2018-08-14T08:01:47.538Z,20.88
2018-08-14T08:04:17.906Z,20.87
2018-08-14T08:06:48.037Z,20.28
2018-08-14T08:09:18.309Z,20.48
2018-08-14T08:11:48.852Z,20.56
2018-08-14T08:14:19.132Z,20.66
2018-08-14T08:16:49.343Z,20.37
2018-08-14T08:19:19.602Z,20.10
2018-08-14T08:21:49.779Z,19.70
2018-08-14T08:24:20.026Z,19.51
2018-08-14T08:26:50.169Z,19.42
2018-08-14T08:29:20.435Z,19.76
2018-08-14T08:31:51.068Z,20.89
2018-08-14T08:34:21.794Z,20.88
2018-08-14T08:36:52.128Z,21.56
2018-08-14T08:39:22.325Z,22.50
2018-08-14T08:41:52.544Z,23.07
2018-08-14T08:44:22.774Z,22.33
2018-08-14T08:46:52.901Z,22.18
2018-08-14T08:49:23.197Z,23.05
2018-08-14T08:51:53.325Z,23.02
2018-08-14T08:54:23.468Z,22.25
2018-08-14T08:56:53.664Z,21.98
2018-08-14T08:59:23.848Z,21.72
2018-08-14T09:01:54.147Z,21.77
2018-08-14T09:04:24.373Z,21.75
2018-08-14T09:06:54.592Z,22.16
2018-08-14T09:09:24.770Z,23.34
2018-08-14T09:11:54.987Z,23.18
2018-08-14T09:14:25.132Z,22.77
2018-08-14T09:16:55.459Z,21.75
2018-08-14T09:19:25.666Z,22.36
2018-08-14T09:21:55.780Z,22.33
2018-08-14T09:24:25.972Z,23.17
2018-08-14T09:26:56.111Z,24.11
2018-08-14T09:29:26.407Z,24.46
2018-08-14T09:31:56.557Z,24.99
2018-08-14T09:34:26.858Z,23.79
2018-08-14T09:36:57.189Z,23.55
2018-08-14T09:39:27.386Z,23.13
2018-08-14T09:41:57.600Z,23.29
2018-08-14T09:44:27.988Z,23.81
2018-08-14T09:46:58.216Z,24.11
2018-08-14T09:49:28.409Z,24.63
2018-08-14T09:51:58.616Z,24.10
2018-08-14T09:54:28.862Z,23.33
2018-08-14T09:56:59.087Z,23.41
2018-08-14T09:59:29.290Z,23.40
2018-08-14T10:02:04.502Z,23.42
2018-08-14T10:04:39.885Z,22.81
2018-08-14T10:07:15.148Z,22.09
2018-08-14T10:09:45.380Z,21.92
2018-08-14T10:12:15.711Z,22.41
2018-08-14T10:14:50.016Z,23.15
2018-08-14T10:17:20.181Z,22.83
2018-08-14T10:19:50.448Z,22.44
2018-08-14T10:22:20.663Z,22.22
2018-08-14T10:24:50.902Z,22.73
2018-08-14T10:27:21.111Z,23.11
2018-08-14T10:29:51.308Z,23.55
2018-08-14T10:32:21.433Z,23.98
2018-08-14T10:34:52.302Z,24.41
2018-08-14T10:37:22.812Z,24.40
2018-08-14T10:39:53.018Z,23.75
2018-08-14T10:42:23.764Z,24.02
2018-08-14T10:44:54.033Z,24.12
2018-08-14T10:47:24.142Z,23.46
2018-08-14T10:49:54.388Z,23.07
2018-08-14T10:52:45.292Z,22.96
2018-08-14T10:55:34.583Z,22.75
2018-08-14T10:58:04.806Z,22.58
2018-08-14T11:00:34.933Z,22.87
2018-08-14T11:03:05.181Z,23.25
2018-08-14T11:05:35.383Z,23.93
2018-08-14T11:08:05.567Z,23.94
2018-08-14T11:10:40.946Z,23.86
2018-08-14T11:13:11.141Z,23.84
2018-08-14T11:15:41.379Z,23.35
2018-08-14T11:18:11.523Z,23.15
2018-08-14T11:20:41.815Z,22.88
2018-08-14T11:23:11.946Z,23.29
2018-08-14T11:25:42.165Z,23.46
2018-08-14T11:28:12.400Z,23.70
2018-08-14T11:30:42.573Z,23.76
2018-08-14T11:33:12.777Z,23.82
2018-08-14T11:35:48.113Z,23.75
2018-08-14T11:38:18.358Z,23.76
2018-08-14T11:40:48.539Z,23.79
2018-08-14T11:43:18.658Z,24.09
2018-08-14T11:45:48.982Z,24.21
2018-08-14T11:48:19.186Z,24.24
2018-08-14T11:50:49.594Z,24.17
2018-08-14T11:53:19.820Z,23.78
2018-08-14T11:55:49.921Z,24.13
2018-08-14T11:58:20.075Z,24.71
2018-08-14T12:00:50.214Z,24.92
2018-08-14T12:03:20.417Z,25.19
2018-08-14T12:05:50.702Z,25.16
2018-08-14T12:08:20.867Z,25.19
2018-08-14T12:10:51.043Z,25.23
2018-08-14T12:13:21.213Z,24.98
2018-08-14T12:15:51.320Z,25.26
2018-08-14T12:18:21.519Z,25.23
2018-08-14T12:20:51.685Z,25.19
2018-08-14T12:23:21.790Z,25.26
2018-08-14T12:25:51.966Z,25.03
2018-08-14T12:28:22.193Z,24.80
2018-08-14T12:30:52.447Z,24.33
2018-08-14T12:33:22.628Z,24.13
2018-08-14T12:35:52.782Z,24.72
2018-08-14T12:38:22.967Z,24.74
2018-08-14T12:40:53.230Z,25.04
2018-08-14T12:43:23.389Z,25.38
2018-08-14T12:45:53.528Z,25.32
2018-08-14T12:48:23.744Z,25.11
2018-08-14T12:50:53.945Z,25.27
2018-08-14T12:53:24.264Z,25.34
2018-08-14T12:55:54.465Z,24.80
2018-08-14T12:58:24.648Z,24.31
2018-08-14T13:00:54.821Z,24.34
2018-08-14T13:03:24.990Z,24.76
2018-08-14T13:05:55.205Z,24.92
2018-08-14T13:08:25.376Z,24.97
2018-08-14T13:10:55.552Z,24.88
2018-08-14T13:13:25.752Z,25.05
2018-08-14T13:15:55.883Z,25.16
2018-08-14T13:18:26.095Z,25.28
2018-08-14T13:20:56.251Z,25.00
2018-08-14T13:23:26.393Z,25.14
2018-08-14T13:25:56.535Z,24.99
2018-08-14T13:28:26.733Z,24.75
2018-08-14T13:30:56.911Z,25.16
2018-08-14T13:33:27.078Z,25.49
2018-08-14T13:35:57.326Z,25.67
2018-08-14T13:38:27.529Z,25.24
2018-08-14T13:40:57.683Z,25.14
2018-08-14T13:43:27.870Z,24.78
2018-08-14T13:45:58.100Z,24.82
2018-08-14T13:48:28.334Z,24.67
2018-08-14T13:50:58.537Z,24.66
2018-08-14T13:53:28.671Z,24.81
2018-08-14T13:55:58.887Z,24.60
2018-08-14T13:58:29.052Z,24.70
2018-08-14T14:00:59.218Z,24.97
2018-08-14T14:03:29.450Z,24.98
2018-08-14T14:06:00.754Z,25.16
2018-08-14T14:08:31.040Z,24.74
2018-08-14T14:11:01.255Z,24.16
2018-08-14T14:13:31.423Z,24.12
2018-08-14T14:16:01.591Z,24.30
2018-08-14T14:18:34.352Z,24.24
2018-08-14T14:21:05.082Z,24.20
2018-08-14T14:23:35.235Z,24.00
2018-08-14T14:26:05.398Z,24.04
2018-08-14T14:28:35.580Z,24.18
2018-08-14T14:31:05.842Z,24.38
2018-08-14T14:33:35.955Z,24.25
2018-08-14T14:36:06.582Z,24.20
2018-08-14T14:38:36.752Z,24.56
2018-08-14T14:41:07.229Z,24.84
2018-08-14T14:43:37.563Z,24.99
2018-08-14T14:46:07.768Z,25.35
2018-08-14T14:48:37.991Z,26.14
2018-08-14T14:51:08.304Z,26.70
2018-08-14T14:53:38.612Z,27.26
2018-08-14T14:56:08.845Z,27.39
2018-08-14T14:58:39.054Z,27.89
2018-08-14T15:01:09.395Z,27.20
2018-08-14T15:03:39.609Z,26.36
2018-08-14T15:06:09.861Z,26.55
2018-08-14T15:08:40.152Z,26.80
2018-08-14T15:11:10.442Z,27.19
2018-08-14T15:13:40.835Z,27.05
2018-08-14T15:16:11.006Z,26.27
2018-08-14T15:18:41.124Z,25.30
2018-08-14T15:21:11.469Z,25.58
2018-08-14T15:23:41.588Z,26.32
2018-08-14T15:26:11.810Z,27.24
2018-08-14T15:29:26.385Z,27.57
2018-08-14T15:31:58.568Z,27.99
2018-08-14T15:34:31.498Z,27.69
2018-08-14T15:37:04.667Z,28.05
2018-08-14T15:39:34.843Z,27.80
2018-08-14T15:42:06.058Z,28.30
2018-08-14T15:44:36.167Z,27.93
2018-08-14T15:47:06.367Z,26.98
2018-08-14T15:49:36.584Z,27.07
2018-08-14T15:52:06.859Z,27.51
2018-08-14T15:54:37.041Z,28.07
2018-08-14T15:57:07.425Z,27.73
2018-08-14T15:59:37.627Z,27.86
2018-08-14T16:02:07.959Z,28.22
2018-08-14T16:04:38.128Z,27.39
2018-08-14T16:07:08.259Z,26.69
2018-08-14T16:09:38.350Z,26.09
2018-08-14T16:12:08.617Z,26.37
2018-08-14T16:14:38.859Z,26.53
2018-08-14T16:17:09.073Z,27.05
2018-08-14T16:19:39.319Z,26.60
2018-08-14T16:22:09.558Z,26.33
2018-08-14T16:24:39.761Z,25.36
2018-08-14T16:27:13.578Z,25.10
2018-08-14T16:29:43.890Z,24.77
2018-08-14T16:32:14.133Z,24.60
2018-08-14T16:34:44.307Z,24.40
2018-08-14T16:37:14.588Z,24.29
2018-08-14T16:39:44.733Z,23.99
2018-08-14T16:42:14.927Z,23.91
2018-08-14T16:44:45.035Z,23.82
2018-08-14T16:47:15.231Z,23.60
2018-08-14T16:49:45.361Z,23.51
2018-08-14T16:52:15.794Z,23.46
2018-08-14T16:54:45.986Z,23.39
2018-08-14T16:57:16.128Z,23.35
2018-08-14T16:59:46.347Z,23.39
2018-08-14T17:02:16.490Z,23.40
2018-08-14T17:04:46.695Z,23.52
2018-08-14T17:07:16.840Z,23.38
2018-08-14T17:09:46.922Z,23.43
2018-08-14T17:12:17.100Z,23.38
2018-08-14T17:14:47.287Z,23.34
2018-08-14T17:17:17.479Z,23.43
2018-08-14T17:19:45.516Z,23.36
2018-08-14T17:22:15.718Z,23.22
2018-08-14T17:24:45.919Z,23.04
2018-08-14T17:27:16.105Z,23.08
2018-08-14T17:29:46.333Z,23.07
2018-08-14T17:32:16.530Z,22.92
2018-08-14T17:34:46.755Z,22.97
2018-08-14T17:37:17.044Z,22.95
2018-08-14T17:39:47.233Z,23.00
2018-08-14T17:42:17.423Z,22.89
2018-08-14T17:44:47.573Z,22.85
2018-08-14T17:47:17.916Z,22.78
2018-08-14T17:49:48.094Z,22.67
2018-08-14T17:52:18.343Z,22.63
2018-08-14T17:54:48.477Z,22.46
2018-08-14T17:57:18.543Z,22.48
2018-08-14T17:59:48.751Z,22.38
2018-08-14T18:02:18.917Z,22.36
2018-08-14T18:04:49.111Z,22.26
2018-08-14T18:07:19.219Z,22.12
2018-08-14T18:09:49.367Z,22.07
2018-08-14T18:12:19.477Z,22.03
2018-08-14T18:14:49.636Z,22.00
2018-08-14T18:17:20.248Z,21.95
2018-08-14T18:19:50.542Z,21.95
2018-08-14T18:22:20.679Z,21.83
2018-08-14T18:24:50.977Z,21.82
2018-08-14T18:27:21.058Z,21.83
2018-08-14T18:29:51.245Z,21.81
2018-08-14T18:32:21.343Z,21.70
2018-08-14T18:34:51.531Z,21.63
2018-08-14T18:37:21.677Z,21.56
2018-08-14T18:39:51.936Z,21.56
2018-08-14T18:42:22.260Z,21.47
2018-08-14T18:44:52.536Z,21.39
2018-08-14T18:47:22.782Z,21.29
2018-08-14T18:49:52.995Z,21.25
2018-08-14T18:52:23.155Z,21.13
2018-08-14T18:54:53.388Z,21.04
2018-08-14T18:57:23.679Z,21.04
2018-08-14T18:59:53.969Z,20.86
2018-08-14T19:02:24.205Z,20.78
2018-08-14T19:04:54.355Z,20.84
2018-08-14T19:07:24.800Z,20.94
2018-08-14T19:09:55.017Z,20.87
2018-08-14T19:12:25.217Z,20.87
2018-08-14T19:14:55.445Z,20.90
2018-08-14T19:17:25.578Z,20.80
2018-08-14T19:19:55.769Z,20.84
2018-08-14T19:22:25.912Z,20.84
2018-08-14T19:24:56.103Z,20.68
2018-08-14T19:27:26.187Z,20.59
2018-08-14T19:29:56.538Z,20.55
2018-08-14T19:32:26.612Z,20.68
2018-08-14T19:34:56.780Z,20.64
2018-08-14T19:37:26.970Z,20.58
2018-08-14T19:39:57.147Z,20.60
2018-08-14T19:42:27.321Z,20.53
2018-08-14T19:44:57.502Z,20.54
2018-08-14T19:47:27.653Z,20.47
2018-08-14T19:49:57.837Z,20.40
2018-08-14T19:52:28.092Z,20.36
2018-08-14T19:54:58.308Z,20.38
2018-08-14T19:57:29.416Z,20.42
2018-08-14T19:59:59.512Z,20.47
2018-08-14T20:02:29.718Z,20.38
2018-08-14T20:04:59.890Z,20.45
2018-08-14T20:07:29.978Z,20.41
2018-08-14T20:10:00.132Z,20.32
2018-08-14T20:12:30.358Z,20.41
2018-08-14T20:15:00.534Z,20.34
2018-08-14T20:17:30.649Z,20.33
2018-08-14T20:20:00.819Z,20.36
2018-08-14T20:22:30.976Z,20.31
2018-08-14T20:25:01.217Z,20.25
2018-08-14T20:27:31.395Z,20.17
2018-08-14T20:30:01.708Z,20.16
2018-08-14T20:32:31.927Z,20.23
2018-08-14T20:35:02.146Z,20.18
2018-08-14T20:37:32.286Z,20.14
2018-08-14T20:40:02.600Z,20.04
2018-08-14T20:42:32.754Z,20.03
2018-08-14T20:45:03.010Z,19.88
2018-08-14T20:47:33.173Z,19.78
2018-08-14T20:50:03.316Z,19.67
2018-08-14T20:52:33.408Z,19.56
2018-08-14T20:55:03.626Z,19.43
2018-08-14T20:57:33.750Z,19.43
2018-08-14T21:00:04.150Z,19.24
2018-08-14T21:02:34.459Z,19.16
2018-08-14T21:05:05.356Z,19.03
2018-08-14T21:07:35.563Z,18.89
2018-08-14T21:10:06.959Z,18.78
2018-08-14T21:12:43.272Z,18.73
2018-08-14T21:15:16.274Z,18.82
2018-08-14T21:17:47.361Z,18.66
2018-08-14T21:20:19.384Z,18.54
2018-08-14T21:22:49.844Z,18.45
2018-08-14T21:25:20.025Z,18.45
2018-08-14T21:27:50.166Z,18.38
2018-08-14T21:30:20.385Z,18.34
2018-08-14T21:32:50.540Z,18.29
2018-08-14T21:35:20.668Z,18.29
2018-08-14T21:37:50.828Z,18.37
2018-08-14T21:40:21.034Z,18.51
2018-08-14T21:42:51.573Z,18.65
2018-08-14T21:45:22.507Z,18.80
2018-08-14T21:47:52.671Z,18.96
2018-08-14T21:50:22.810Z,19.13
2018-08-14T21:52:52.880Z,19.10
2018-08-14T21:55:23.079Z,19.10
2018-08-14T21:57:53.276Z,19.05
2018-08-14T22:00:42.446Z,18.97
2018-08-14T22:03:12.716Z,18.77
2018-08-14T22:05:42.866Z,18.72
2018-08-14T22:08:13.109Z,18.85
2018-08-14T22:10:43.255Z,18.88
2018-08-14T22:13:13.342Z,18.94
2018-08-14T22:15:43.508Z,18.76
2018-08-14T22:18:13.582Z,18.56
2018-08-14T22:20:43.725Z,18.46
2018-08-14T22:23:13.894Z,18.44
2018-08-14T22:25:44.162Z,18.28
2018-08-14T22:28:14.244Z,18.28
2018-08-14T22:30:44.468Z,18.29
2018-08-14T22:33:14.539Z,18.22
2018-08-14T22:35:44.695Z,18.06
2018-08-14T22:38:14.757Z,18.03
2018-08-14T22:40:44.930Z,17.88
2018-08-14T22:43:15.037Z,17.85
2018-08-14T22:45:45.161Z,17.69
2018-08-14T22:48:15.275Z,17.65
2018-08-14T22:50:45.444Z,17.62
2018-08-14T22:53:15.585Z,17.50
2018-08-14T22:55:46.529Z,17.48
2018-08-14T22:58:16.702Z,17.44
2018-08-14T23:00:46.884Z,17.37
2018-08-14T23:03:16.966Z,17.33
2018-08-14T23:05:47.064Z,17.32
2018-08-14T23:08:17.173Z,17.21
2018-08-14T23:10:47.304Z,17.11
2018-08-14T23:13:17.421Z,17.02
2018-08-14T23:15:51.529Z,16.94
2018-08-14T23:18:21.607Z,16.80
2018-08-14T23:20:51.693Z,16.77
2018-08-14T23:23:21.758Z,16.73
2018-08-14T23:25:51.897Z,16.73
2018-08-14T23:28:22.014Z,16.76
2018-08-14T23:30:52.168Z,16.75
2018-08-14T23:33:22.295Z,16.69
2018-08-14T23:35:52.459Z,16.63
2018-08-14T23:38:22.760Z,16.63
2018-08-14T23:40:52.834Z,16.64
2018-08-14T23:43:22.951Z,16.68
2018-08-14T23:45:53.074Z,16.75
2018-08-14T23:48:23.181Z,16.86
2018-08-14T23:50:53.248Z,16.91
2018-08-14T23:53:23.315Z,17.03
2018-08-14T23:55:53.435Z,17.08
2018-08-14T23:58:23.585Z,17.13
